Terminal Aerodrome Forecast
Issued by NWS

Home | Current Version | Previous Version | Text Only | Print | Product List | Glossary On
Versions: 1 2 3 4 5 6 7 8 9 10 11 12 13 14 15 16 17 18 19 20 21 22 23 24 25 26 27 28 29 30
000
FTUS43 KDLH 241100
TAFHYR
TAF
KHYR 241138Z 2412/2512 15006KT P6SM SCT250
     FM241700 17011G18KT P6SM SCT150
     FM242300 16005KT P6SM BKN150
     FM250600 16008KT 4SM -SN BR OVC018
     FM250900 18005KT 1SM -SN BR OVC010=

USA.gov is the U.S. government's official web portal to all federal, state and local government web resources and services.